createdAt,value
2019-02-14T12:15:25.215Z,99530.00
2019-02-14T12:17:09.643Z,99523.00
2019-02-14T12:18:54.069Z,99529.00
2019-02-14T12:20:38.498Z,99524.00
2019-02-14T12:22:22.922Z,99521.00
2019-02-14T12:24:09.522Z,99522.00
2019-02-14T12:25:53.938Z,99513.00
2019-02-14T12:27:38.372Z,99519.00
2019-02-14T12:29:22.772Z,99516.00
2019-02-14T12:31:07.200Z,99523.00
2019-02-14T12:32:51.599Z,99510.00
2019-02-14T12:34:36.028Z,99504.00
2019-02-14T12:36:20.477Z,99501.00
2019-02-14T12:38:05.066Z,99501.00
2019-02-14T12:39:49.602Z,99498.00
2019-02-14T12:41:34.087Z,99498.00
2019-02-14T12:43:18.583Z,99495.00
2019-02-14T12:45:03.088Z,99491.00
2019-02-14T12:46:47.514Z,99489.00
2019-02-14T12:48:31.935Z,99488.00
2019-02-14T12:50:16.341Z,99494.00
2019-02-14T12:52:00.764Z,99490.00
2019-02-14T12:53:45.163Z,99485.00
2019-02-14T12:55:29.591Z,99486.00
2019-02-14T12:57:13.991Z,99482.00
2019-02-14T12:58:58.418Z,99476.00
2019-02-14T13:00:42.819Z,99473.00
2019-02-14T13:02:27.246Z,99468.00
2019-02-14T13:04:11.646Z,99469.00
2019-02-14T13:05:56.293Z,99462.00
2019-02-14T13:07:40.683Z,99464.00
2019-02-14T13:09:25.199Z,99470.00
2019-02-14T13:11:09.628Z,99459.00
2019-02-14T13:12:54.052Z,99459.00
2019-02-14T13:14:38.478Z,99466.00
2019-02-14T13:16:22.966Z,99465.00
2019-02-14T13:18:07.396Z,99464.00
2019-02-14T13:19:51.818Z,99463.00
2019-02-14T13:21:36.248Z,99464.00
2019-02-14T13:23:20.647Z,99460.00
2019-02-14T13:25:08.118Z,99458.00
2019-02-14T13:26:52.546Z,99454.00
2019-02-14T13:28:37.032Z,99463.00
2019-02-14T13:30:25.927Z,99466.00
2019-02-14T13:32:10.373Z,99459.00
2019-02-14T13:33:54.790Z,99464.00
2019-02-14T13:35:39.210Z,99467.00
2019-02-14T13:37:23.722Z,99458.00
2019-02-14T13:39:08.123Z,99457.00
2019-02-14T13:40:54.595Z,99450.00
2019-02-14T13:42:38.645Z,99455.00
2019-02-14T13:44:23.072Z,99450.00
2019-02-14T13:46:07.565Z,99452.00
2019-02-14T13:47:52.967Z,99450.00
2019-02-14T13:49:37.394Z,99450.00
2019-02-14T13:51:21.824Z,99438.00
2019-02-14T13:53:06.257Z,99441.00
2019-02-14T13:54:50.655Z,99442.00
2019-02-14T13:56:35.082Z,99437.00
2019-02-14T13:58:19.484Z,99441.00
2019-02-14T14:00:09.669Z,99437.00
2019-02-14T14:01:54.070Z,99441.00
2019-02-14T14:03:38.498Z,99431.00
2019-02-14T14:05:22.908Z,99440.00
2019-02-14T14:07:07.330Z,99434.00
2019-02-14T14:08:51.776Z,99427.00
2019-02-14T14:10:36.202Z,99426.00
2019-02-14T14:12:21.376Z,99426.00
2019-02-14T14:14:06.868Z,99426.00
2019-02-14T14:15:51.478Z,99427.00
2019-02-14T14:17:35.987Z,99421.00
2019-02-14T14:19:20.414Z,99411.00
2019-02-14T14:21:04.842Z,99410.00
2019-02-14T14:22:49.286Z,99401.00
2019-02-14T14:24:33.710Z,99403.00
2019-02-14T14:26:18.146Z,99395.00
2019-02-14T14:28:02.583Z,99403.00
2019-02-14T14:29:47.013Z,99399.00
2019-02-14T14:31:31.418Z,99394.00
2019-02-14T14:33:15.845Z,99401.00
2019-02-14T14:35:00.247Z,99403.00
2019-02-14T14:36:44.671Z,99395.00
2019-02-14T14:38:29.075Z,99402.00
2019-02-14T14:40:17.658Z,99400.00
2019-02-14T14:42:03.426Z,99397.00
2019-02-14T14:43:55.456Z,99399.00
2019-02-14T14:45:50.601Z,99401.00
2019-02-14T14:47:35.030Z,99392.00
2019-02-14T14:49:19.463Z,99403.00
2019-02-14T14:51:03.891Z,99393.00
2019-02-14T14:52:48.617Z,99396.00
2019-02-14T14:54:33.530Z,99391.00
2019-02-14T14:56:18.394Z,99392.00
2019-02-14T14:58:03.351Z,99394.00
2019-02-14T14:59:48.217Z,99392.00
2019-02-14T15:01:34.690Z,99393.00
2019-02-14T15:03:19.576Z,99386.00
2019-02-14T15:05:04.667Z,99389.00
2019-02-14T15:06:49.458Z,99389.00
2019-02-14T15:08:34.150Z,99393.00
2019-02-14T15:10:18.994Z,99392.00
2019-02-14T15:12:03.650Z,99396.00
2019-02-14T15:13:48.246Z,99389.00
2019-02-14T15:15:32.666Z,99392.00
